Time;durP1;ratioP1;P1;durP2;ratioP2;P2;SDS_P1;SDS_P2;PMS_P1;PMS_P2;Temp;Humidity;BMP_temperature;BMP_pressure;BME280_temperature;BME280_humidity;BME280_pressure;Samples;Min_cycle;Max_cycle;Signal;HPM_P1;HPM_P2
2023/08/17 00:02:13;;;;;;;9.63;4.95;;;19.20;99.90;;;;;;4987520;28;20033;-80
2023/08/17 00:04:39;;;;;;;8.32;5.15;;;19.20;99.90;;;;;;4995917;28;20034;-80
2023/08/17 00:07:06;;;;;;;6.30;4.28;;;19.20;99.90;;;;;;4979545;28;20727;-80
2023/08/17 00:09:32;;;;;;;5.28;4.60;;;19.20;99.90;;;;;;4979635;28;20466;-80
2023/08/17 00:11:58;;;;;;;5.50;4.25;;;19.10;99.90;;;;;;4972393;28;20377;-80
2023/08/17 00:14:24;;;;;;;6.10;4.57;;;19.10;99.90;;;;;;4996585;28;20045;-80
2023/08/17 00:16:50;;;;;;;9.20;5.57;;;19.10;99.90;;;;;;4993592;28;20027;-80
2023/08/17 00:19:16;;;;;;;8.65;4.57;;;19.00;99.90;;;;;;4987409;28;20045;-79
2023/08/17 00:21:44;;;;;;;4.78;4.30;;;19.00;99.90;;;;;;4993567;28;20086;-80
2023/08/17 00:24:09;;;;;;;6.28;4.50;;;19.00;99.90;;;;;;4987505;28;20919;-79
2023/08/17 00:26:35;;;;;;;6.20;4.57;;;18.90;99.90;;;;;;4989636;28;20054;-79
2023/08/17 00:29:01;;;;;;;7.30;4.32;;;18.90;99.90;;;;;;4979679;28;20045;-80
2023/08/17 00:31:27;;;;;;;6.93;4.45;;;18.90;99.90;;;;;;4994295;28;20088;-80
2023/08/17 00:33:52;;;;;;;4.40;4.00;;;18.90;99.90;;;;;;4993225;28;20038;-80
2023/08/17 00:36:18;;;;;;;5.03;4.28;;;18.80;99.90;;;;;;4996978;28;20066;-79
2023/08/17 00:38:44;;;;;;;7.60;5.07;;;18.80;99.90;;;;;;4996753;28;20035;-79
2023/08/17 00:41:10;;;;;;;6.30;4.70;;;18.80;99.90;;;;;;4991192;28;20549;-79
2023/08/17 00:43:35;;;;;;;9.07;5.03;;;18.80;99.90;;;;;;4989135;28;20035;-80
2023/08/17 00:46:02;;;;;;;7.15;5.70;;;18.80;99.90;;;;;;4990513;28;20124;-80
2023/08/17 00:48:29;;;;;;;7.22;5.07;;;18.80;99.90;;;;;;4995939;28;20235;-80
2023/08/17 00:50:57;;;;;;;7.10;4.85;;;18.80;99.90;;;;;;4994777;28;20046;-80
2023/08/17 00:53:25;;;;;;;7.15;4.35;;;18.80;99.90;;;;;;4984324;28;20035;-79
2023/08/17 00:55:52;;;;;;;5.38;4.22;;;18.80;99.90;;;;;;4982693;28;20077;-79
2023/08/17 00:58:36;;;;;;;7.43;4.00;;;18.80;99.90;;;;;;4984385;28;20069;-80
2023/08/17 01:01:02;;;;;;;5.60;4.60;;;18.80;99.90;;;;;;4971376;28;20058;-81
2023/08/17 01:03:31;;;;;;;7.90;4.68;;;18.80;99.90;;;;;;4982475;28;20030;-80
2023/08/17 01:05:58;;;;;;;5.53;4.70;;;18.70;99.90;;;;;;4994813;28;20044;-80
2023/08/17 01:08:24;;;;;;;5.63;4.43;;;18.70;99.90;;;;;;4990095;28;20046;-80
2023/08/17 01:11:13;;;;;;;4.70;4.30;;;18.70;99.90;;;;;;4988609;28;20069;-79
2023/08/17 01:14:08;;;;;;;6.10;5.50;;;18.70;99.90;;;;;;4987977;28;20023;-79
2023/08/17 01:16:43;;;;;;;6.30;5.53;;;18.70;99.90;;;;;;4987828;28;20035;-79
2023/08/17 01:19:18;;;;;;;8.02;5.60;;;18.60;99.90;;;;;;4978622;28;20057;-79
2023/08/17 01:21:49;;;;;;;6.95;5.63;;;18.60;99.90;;;;;;4973418;28;20033;-81
2023/08/17 01:24:15;;;;;;;7.72;6.32;;;18.60;99.90;;;;;;4990085;28;20022;-80
2023/08/17 01:26:41;;;;;;;6.60;6.00;;;18.60;99.90;;;;;;4998554;28;20073;-80
2023/08/17 01:29:07;;;;;;;8.40;5.57;;;18.50;99.90;;;;;;4976796;28;20475;-79
2023/08/17 01:32:00;;;;;;;9.38;6.30;;;18.60;99.90;;;;;;4975255;28;20113;-79
2023/08/17 01:34:29;;;;;;;6.53;5.80;;;18.60;99.90;;;;;;4991466;28;20116;-80
2023/08/17 01:36:59;;;;;;;6.43;5.50;;;18.50;99.90;;;;;;4982256;28;20030;-80
2023/08/17 01:39:34;;;;;;;7.85;6.22;;;18.50;99.90;;;;;;4967126;28;20133;-80
2023/08/17 01:42:03;;;;;;;8.43;5.97;;;18.50;99.90;;;;;;4979853;28;20390;-79
2023/08/17 01:44:29;;;;;;;6.20;5.50;;;18.50;99.90;;;;;;4993259;28;20030;-79
2023/08/17 01:47:13;;;;;;;6.03;5.50;;;18.50;99.90;;;;;;4989119;28;20066;-80
2023/08/17 01:49:40;;;;;;;5.68;4.72;;;18.50;99.90;;;;;;4980607;28;20038;-80
2023/08/17 01:52:06;;;;;;;5.45;4.72;;;18.50;99.90;;;;;;4975665;28;20053;-79
2023/08/17 01:54:32;;;;;;;4.70;4.22;;;18.50;99.90;;;;;;4990836;28;20038;-79
2023/08/17 01:56:58;;;;;;;5.53;4.97;;;18.50;99.90;;;;;;4996375;28;20035;-79
2023/08/17 01:59:23;;;;;;;6.10;4.68;;;18.50;99.90;;;;;;4978672;28;20031;-79
2023/08/17 02:01:49;;;;;;;7.32;5.20;;;18.50;99.90;;;;;;4978540;28;20612;-80
2023/08/17 02:04:15;;;;;;;8.75;5.25;;;18.40;99.90;;;;;;4998561;28;20392;-80
2023/08/17 02:06:41;;;;;;;7.90;5.03;;;18.40;99.90;;;;;;4982822;28;20053;-80
2023/08/17 02:09:07;;;;;;;5.55;4.82;;;18.40;99.90;;;;;;4965230;28;20093;-82
2023/08/17 02:11:33;;;;;;;5.00;4.60;;;18.40;99.90;;;;;;4978433;28;20065;-80
2023/08/17 02:13:58;;;;;;;5.75;5.20;;;18.30;99.90;;;;;;4977595;28;20026;-80
2023/08/17 02:16:27;;;;;;;6.35;5.70;;;18.30;99.90;;;;;;4991131;28;20445;-81
2023/08/17 02:18:53;;;;;;;8.07;5.72;;;18.30;99.90;;;;;;4978063;28;20153;-80
2023/08/17 02:21:18;;;;;;;6.93;5.35;;;18.30;99.90;;;;;;4987540;28;20070;-81
2023/08/17 02:23:44;;;;;;;8.43;5.35;;;18.30;99.90;;;;;;4985853;28;20039;-80
2023/08/17 02:26:10;;;;;;;8.23;5.72;;;18.30;99.90;;;;;;4993390;28;20026;-80
2023/08/17 02:28:36;;;;;;;6.75;5.53;;;18.30;99.90;;;;;;4980793;28;20034;-80
2023/08/17 02:31:02;;;;;;;8.10;5.97;;;18.30;99.90;;;;;;4982690;28;20037;-80
2023/08/17 02:33:28;;;;;;;7.25;6.20;;;18.30;99.90;;;;;;4996751;28;20034;-79
2023/08/17 02:35:53;;;;;;;7.97;6.43;;;18.30;99.90;;;;;;4984387;28;20045;-79
2023/08/17 02:38:19;;;;;;;8.75;6.65;;;18.30;99.90;;;;;;4992181;28;20035;-80
2023/08/17 02:40:45;;;;;;;9.23;6.25;;;18.30;99.90;;;;;;4990606;28;20077;-78
2023/08/17 02:43:11;;;;;;;6.35;5.75;;;18.40;99.90;;;;;;4996073;28;20022;-79
2023/08/17 02:45:37;;;;;;;6.45;5.85;;;18.30;99.90;;;;;;4992869;28;20213;-81
2023/08/17 02:48:03;;;;;;;8.48;6.03;;;18.40;99.90;;;;;;4979116;28;20058;-80
2023/08/17 02:50:29;;;;;;;7.00;5.25;;;18.40;99.90;;;;;;4984115;28;20046;-80
2023/08/17 02:52:55;;;;;;;6.32;5.45;;;18.40;99.90;;;;;;4990827;28;20026;-80
2023/08/17 02:55:21;;;;;;;6.88;6.18;;;18.40;99.90;;;;;;4989645;28;20034;-80
2023/08/17 02:57:46;;;;;;;8.15;5.80;;;18.40;99.90;;;;;;4995950;28;20031;-80
2023/08/17 03:00:13;;;;;;;7.70;5.75;;;18.40;99.90;;;;;;4992721;28;20022;-80
2023/08/17 03:02:39;;;;;;;6.90;5.50;;;18.50;99.90;;;;;;4993488;28;20023;-80
2023/08/17 03:05:05;;;;;;;6.30;5.70;;;18.40;99.90;;;;;;4992066;28;20097;-79
2023/08/17 03:07:32;;;;;;;6.28;5.68;;;18.40;99.90;;;;;;4987170;28;20061;-81
2023/08/17 03:09:57;;;;;;;8.93;5.95;;;18.40;99.90;;;;;;4977025;28;20045;-81
2023/08/17 03:12:23;;;;;;;5.78;5.20;;;18.40;99.90;;;;;;4991513;28;20038;-80
2023/08/17 03:14:49;;;;;;;6.90;6.00;;;18.50;99.90;;;;;;4977022;28;20499;-82
2023/08/17 03:17:33;;;;;;;6.68;6.05;;;18.40;99.90;;;;;;4989095;28;20073;-81
2023/08/17 03:20:00;;;;;;;6.90;5.80;;;18.40;99.90;;;;;;4977368;28;20034;-79
2023/08/17 03:22:26;;;;;;;6.80;6.10;;;18.40;99.90;;;;;;4973620;28;20077;-81
2023/08/17 03:24:55;;;;;;;6.78;6.07;;;18.40;99.90;;;;;;4989935;28;20451;-80
2023/08/17 03:27:21;;;;;;;6.55;5.97;;;18.40;99.90;;;;;;4978248;28;20405;-79
2023/08/17 03:29:47;;;;;;;7.45;6.20;;;18.40;99.90;;;;;;4998617;28;20048;-80
2023/08/17 03:32:12;;;;;;;7.47;6.43;;;18.30;99.90;;;;;;4971717;28;20027;-79
2023/08/17 03:34:38;;;;;;;7.82;6.93;;;18.30;99.90;;;;;;4965149;28;20332;-79
2023/08/17 03:37:05;;;;;;;8.93;6.72;;;18.40;99.90;;;;;;4979697;28;20034;-78
2023/08/17 03:39:31;;;;;;;7.10;6.35;;;18.40;99.90;;;;;;4992679;28;20602;-80
2023/08/17 03:41:57;;;;;;;8.23;6.50;;;18.30;99.90;;;;;;4986748;28;20027;-80
2023/08/17 03:44:23;;;;;;;7.00;6.30;;;18.30;99.90;;;;;;4967427;28;20030;-80
2023/08/17 03:46:48;;;;;;;6.60;6.00;;;18.30;99.90;;;;;;4990109;28;20027;-80
2023/08/17 03:49:14;;;;;;;7.95;5.55;;;18.30;99.90;;;;;;4991444;28;20034;-80
2023/08/17 03:51:40;;;;;;;7.60;5.80;;;18.30;99.90;;;;;;4981274;28;20042;-80
2023/08/17 03:54:06;;;;;;;7.25;5.68;;;18.30;99.90;;;;;;4987107;28;20110;-80
2023/08/17 03:56:32;;;;;;;6.97;5.32;;;18.30;99.90;;;;;;4967910;28;20054;-79
2023/08/17 03:58:58;;;;;;;7.85;5.10;;;18.30;99.90;;;;;;4979908;28;20042;-81
2023/08/17 04:01:24;;;;;;;5.93;5.13;;;18.30;99.90;;;;;;4979381;28;20046;-80
2023/08/17 04:03:50;;;;;;;6.32;5.72;;;18.30;99.90;;;;;;4982177;28;20033;-79
2023/08/17 04:06:16;;;;;;;6.22;5.63;;;18.30;99.90;;;;;;4981966;28;20043;-80
2023/08/17 04:08:42;;;;;;;6.32;5.68;;;18.30;99.90;;;;;;4998358;28;20046;-80
2023/08/17 04:11:08;;;;;;;10.30;6.75;;;18.30;99.90;;;;;;4979843;28;20396;-79
2023/08/17 04:13:52;;;;;;;7.68;6.70;;;18.30;99.90;;;;;;4997600;28;20050;-80
2023/08/17 04:16:20;;;;;;;6.53;5.57;;;18.30;99.90;;;;;;4989167;28;20113;-80
2023/08/17 04:18:45;;;;;;;8.35;6.07;;;18.30;99.90;;;;;;4982923;28;20163;-80
2023/08/17 04:21:11;;;;;;;6.82;6.13;;;18.30;99.90;;;;;;4979363;28;20022;-78
2023/08/17 04:23:37;;;;;;;6.85;5.63;;;18.30;99.90;;;;;;4997466;28;20062;-79
2023/08/17 04:26:03;;;;;;;8.57;5.38;;;18.30;99.90;;;;;;4974986;28;20022;-79
2023/08/17 04:28:29;;;;;;;8.43;6.00;;;18.30;99.90;;;;;;4996480;28;20125;-80
2023/08/17 04:30:55;;;;;;;7.00;5.55;;;18.30;99.90;;;;;;4989908;28;20101;-80
2023/08/17 04:33:21;;;;;;;5.97;5.38;;;18.30;99.90;;;;;;4975909;28;20038;-80
2023/08/17 04:35:48;;;;;;;7.22;5.40;;;18.30;99.90;;;;;;4987245;28;20428;-81
2023/08/17 04:38:14;;;;;;;7.53;5.85;;;18.30;99.90;;;;;;4972794;28;20039;-80
2023/08/17 04:40:39;;;;;;;6.38;5.78;;;18.30;99.90;;;;;;4952370;28;20038;-81
2023/08/17 04:43:06;;;;;;;6.95;5.45;;;18.20;99.90;;;;;;4971530;28;20050;-81
2023/08/17 04:45:32;;;;;;;6.03;5.43;;;18.20;99.90;;;;;;4993868;28;20055;-77
2023/08/17 04:47:57;;;;;;;5.75;5.00;;;18.20;99.90;;;;;;4981270;28;20053;-79
2023/08/17 04:50:23;;;;;;;6.53;5.93;;;18.20;99.90;;;;;;4978227;28;20034;-80
2023/08/17 04:52:49;;;;;;;6.00;5.40;;;18.20;99.90;;;;;;4976057;28;20112;-80
2023/08/17 04:55:18;;;;;;;6.05;5.50;;;18.20;99.90;;;;;;4983040;28;20031;-80
2023/08/17 04:57:44;;;;;;;6.30;5.45;;;18.20;99.90;;;;;;4996092;28;20030;-80
2023/08/17 05:00:28;;;;;;;6.35;5.72;;;18.20;99.90;;;;;;4994588;28;20178;-80
2023/08/17 05:02:55;;;;;;;7.07;5.75;;;18.20;99.90;;;;;;4976944;28;20038;-79
2023/08/17 05:05:23;;;;;;;6.20;5.60;;;18.20;99.90;;;;;;4992732;28;20081;-80
2023/08/17 05:07:50;;;;;;;7.35;5.72;;;18.20;99.90;;;;;;4994934;28;20022;-80
2023/08/17 05:10:17;;;;;;;5.78;5.28;;;18.20;99.90;;;;;;4982345;28;20078;-80
2023/08/17 05:12:43;;;;;;;6.75;5.68;;;18.20;99.90;;;;;;4996250;28;20064;-79
2023/08/17 05:15:09;;;;;;;8.43;6.13;;;18.20;99.90;;;;;;4984193;28;20027;-78
2023/08/17 05:17:35;;;;;;;7.07;6.38;;;18.20;99.90;;;;;;4999430;28;20081;-80
2023/08/17 05:20:01;;;;;;;7.45;5.97;;;18.30;99.90;;;;;;4989282;28;20106;-79
2023/08/17 05:22:27;;;;;;;8.35;6.30;;;18.30;99.90;;;;;;4978859;28;20030;-80
2023/08/17 05:24:53;;;;;;;9.50;6.18;;;18.30;99.90;;;;;;4981941;28;20039;-77
2023/08/17 05:27:19;;;;;;;7.18;6.47;;;18.30;99.90;;;;;;4998728;28;20096;-80
2023/08/17 05:29:46;;;;;;;7.32;6.35;;;18.30;99.90;;;;;;4986655;28;20054;-80
2023/08/17 05:32:12;;;;;;;8.77;6.45;;;18.40;99.90;;;;;;4981588;28;20038;-79
2023/08/17 05:34:38;;;;;;;7.78;5.97;;;18.40;99.90;;;;;;4985123;28;20038;-79
2023/08/17 05:37:04;;;;;;;9.95;5.88;;;18.40;99.90;;;;;;4978204;28;20089;-79
2023/08/17 05:39:29;;;;;;;8.60;5.10;;;18.40;99.90;;;;;;5001337;28;20042;-80
2023/08/17 05:41:55;;;;;;;7.32;4.70;;;18.50;99.90;;;;;;4997985;28;20037;-79
2023/08/17 05:44:21;;;;;;;7.40;5.55;;;18.50;99.90;;;;;;4975031;28;20190;-80
2023/08/17 05:46:48;;;;;;;6.03;5.40;;;18.50;99.90;;;;;;4998996;28;20066;-80
2023/08/17 05:49:14;;;;;;;7.47;6.03;;;18.50;99.90;;;;;;4980765;28;20062;-80
2023/08/17 05:51:39;;;;;;;8.48;7.18;;;18.50;99.90;;;;;;5004066;28;20022;-79
2023/08/17 05:54:05;;;;;;;11.00;7.80;;;18.40;99.90;;;;;;4998923;28;20031;-79
2023/08/17 05:56:31;;;;;;;8.98;7.95;;;18.40;99.90;;;;;;4997106;28;20382;-80
2023/08/17 05:58:57;;;;;;;7.68;5.95;;;18.40;99.90;;;;;;4996264;28;20384;-80
2023/08/17 06:01:23;;;;;;;6.40;5.80;;;18.50;99.90;;;;;;4998682;28;20038;-79
2023/08/17 06:03:49;;;;;;;6.93;6.10;;;18.50;99.90;;;;;;4984846;28;20034;-79
2023/08/17 06:06:15;;;;;;;7.82;6.13;;;18.60;99.90;;;;;;5001321;28;20045;-79
2023/08/17 06:08:41;;;;;;;7.97;7.13;;;18.60;99.90;;;;;;5001454;28;20545;-79
2023/08/17 06:11:25;;;;;;;5.78;5.20;;;18.70;99.90;;;;;;4981770;28;20050;-79
2023/08/17 06:13:51;;;;;;;6.35;5.57;;;18.90;99.90;;;;;;4996842;28;20023;-80
2023/08/17 06:16:16;;;;;;;6.97;5.07;;;19.00;99.90;;;;;;4996140;28;20058;-79
2023/08/17 06:18:42;;;;;;;6.85;5.15;;;19.10;99.90;;;;;;5000587;28;20033;-80
2023/08/17 06:21:08;;;;;;;7.30;4.93;;;19.20;99.90;;;;;;4996844;28;20023;-79
2023/08/17 06:23:53;;;;;;;7.07;5.35;;;19.30;99.90;;;;;;4997277;28;20054;-81
2023/08/17 06:26:18;;;;;;;6.30;5.30;;;19.30;99.90;;;;;;4998148;28;20034;-80
2023/08/17 06:28:44;;;;;;;6.50;5.90;;;19.60;99.90;;;;;;4997828;28;20034;-79
2023/08/17 06:31:10;;;;;;;7.22;6.03;;;19.80;99.90;;;;;;4991637;28;20039;-79
2023/08/17 06:33:36;;;;;;;8.20;6.35;;;20.20;99.90;;;;;;4993495;28;20027;-79
2023/08/17 06:36:02;;;;;;;8.07;7.28;;;20.50;99.90;;;;;;4995715;28;20407;-79
2023/08/17 06:38:28;;;;;;;9.73;6.85;;;20.60;99.90;;;;;;4990625;28;20053;-79
2023/08/17 06:40:53;;;;;;;15.13;7.60;;;20.80;99.90;;;;;;4987885;28;20030;-78
2023/08/17 06:43:19;;;;;;;10.63;7.45;;;21.10;99.90;;;;;;4992370;28;20082;-79
2023/08/17 06:45:46;;;;;;;8.50;7.70;;;21.30;99.90;;;;;;4990228;28;20057;-80
2023/08/17 06:48:11;;;;;;;9.52;8.48;;;21.50;99.90;;;;;;4988881;28;20141;-80
2023/08/17 06:50:37;;;;;;;8.45;7.60;;;21.80;99.90;;;;;;4991296;28;20042;-80
2023/08/17 06:53:04;;;;;;;12.77;9.00;;;22.20;99.90;;;;;;4980343;28;20048;-80
2023/08/17 06:55:30;;;;;;;9.30;8.07;;;22.50;99.90;;;;;;4989485;28;20038;-79
2023/08/17 06:57:56;;;;;;;10.43;8.48;;;22.80;99.90;;;;;;4986112;28;20408;-79
2023/08/17 07:00:22;;;;;;;9.85;8.80;;;22.70;99.90;;;;;;4992459;28;20063;-80
2023/08/17 07:02:48;;;;;;;9.80;8.52;;;22.60;99.90;;;;;;4992519;28;20027;-80
2023/08/17 07:05:20;;;;;;;12.65;9.88;;;22.80;99.90;;;;;;4988188;28;20083;-80
2023/08/17 07:07:47;;;;;;;11.20;8.80;;;23.10;99.90;;;;;;4997882;28;20089;-80
2023/08/17 07:10:12;;;;;;;9.68;8.70;;;23.40;99.90;;;;;;4999385;28;20030;-78
2023/08/17 07:12:38;;;;;;;10.27;9.27;;;23.60;99.90;;;;;;4999408;28;20026;-78
2023/08/17 07:15:05;;;;;;;12.02;9.88;;;23.80;99.90;;;;;;5002753;28;20027;-79
2023/08/17 07:17:32;;;;;;;12.40;9.93;;;23.70;99.90;;;;;;4995540;28;20031;-80
2023/08/17 07:19:58;;;;;;;12.73;10.93;;;23.70;99.90;;;;;;4996406;28;20018;-78
2023/08/17 07:22:23;;;;;;;13.77;11.80;;;23.80;99.90;;;;;;4992260;28;20064;-80
2023/08/17 07:24:49;;;;;;;13.23;11.82;;;23.90;99.90;;;;;;4995202;28;20026;-80
2023/08/17 07:27:15;;;;;;;15.48;10.20;;;24.00;99.90;;;;;;4989418;28;20038;-80
2023/08/17 07:29:41;;;;;;;13.05;10.48;;;24.10;99.90;;;;;;4996131;28;20034;-82
2023/08/17 07:32:07;;;;;;;12.93;10.57;;;24.10;99.90;;;;;;4986365;28;20029;-77
2023/08/17 07:34:33;;;;;;;12.48;11.18;;;24.10;99.90;;;;;;4974943;28;20042;-81
2023/08/17 07:36:58;;;;;;;14.77;12.38;;;24.00;99.90;;;;;;4970925;28;20045;-81
2023/08/17 07:39:25;;;;;;;13.43;12.00;;;24.10;99.90;;;;;;4981581;28;20488;-77
2023/08/17 07:41:50;;;;;;;14.25;12.68;;;24.00;99.90;;;;;;4987374;28;20041;-78
2023/08/17 07:44:16;;;;;;;13.57;12.15;;;24.00;99.90;;;;;;4994910;28;20030;-79
2023/08/17 07:46:42;;;;;;;15.60;11.68;;;24.10;99.90;;;;;;4988329;28;20046;-79
2023/08/17 07:49:08;;;;;;;13.60;12.15;;;24.20;99.90;;;;;;4988603;28;20488;-80
2023/08/17 07:51:34;;;;;;;13.93;11.88;;;24.30;99.90;;;;;;5000505;28;20638;-81
2023/08/17 07:54:00;;;;;;;15.27;12.05;;;24.30;99.90;;;;;;4997997;28;20070;-79
2023/08/17 07:56:26;;;;;;;14.13;12.73;;;24.40;99.90;;;;;;4996956;28;20037;-80
2023/08/17 07:58:54;;;;;;;15.15;13.27;;;24.40;99.90;;;;;;4982400;28;20046;-81
2023/08/17 08:01:20;;;;;;;14.10;12.48;;;24.70;99.90;;;;;;4996286;28;20034;-81
2023/08/17 08:03:45;;;;;;;17.88;13.65;;;24.90;99.90;;;;;;5003308;28;20097;-79
2023/08/17 08:06:12;;;;;;;14.18;12.68;;;24.90;99.90;;;;;;5000929;28;20439;-80
2023/08/17 08:08:39;;;;;;;14.25;12.85;;;25.10;99.90;;;;;;4991588;28;20059;-81
2023/08/17 08:11:05;;;;;;;12.63;11.30;;;25.30;99.90;;;;;;4988594;28;20030;-80
2023/08/17 08:13:31;;;;;;;14.98;12.32;;;25.20;99.90;;;;;;4976103;28;20050;-81
2023/08/17 08:15:59;;;;;;;15.05;12.73;;;25.30;99.90;;;;;;5000603;28;20108;-78
2023/08/17 08:18:25;;;;;;;13.70;12.27;;;25.30;99.90;;;;;;4994362;28;20049;-80
2023/08/17 08:20:51;;;;;;;14.70;12.30;;;25.20;99.90;;;;;;4994120;28;20238;-81
2023/08/17 08:23:16;;;;;;;15.45;12.65;;;25.30;99.90;;;;;;4995539;28;20123;-81
2023/08/17 08:25:42;;;;;;;15.45;11.80;;;25.40;99.90;;;;;;4994289;28;20031;-80
2023/08/17 08:28:08;;;;;;;13.80;12.50;;;25.60;99.90;;;;;;4991565;28;20045;-80
2023/08/17 08:30:34;;;;;;;13.73;12.32;;;25.50;99.90;;;;;;4991489;28;20035;-81
2023/08/17 08:33:01;;;;;;;12.70;11.40;;;25.60;99.90;;;;;;4974913;28;20056;-79
2023/08/17 08:35:29;;;;;;;12.75;11.48;;;25.70;99.90;;;;;;4979005;28;20061;-80
2023/08/17 08:37:59;;;;;;;13.20;11.77;;;25.70;99.90;;;;;;4979466;28;20035;-80
2023/08/17 08:40:30;;;;;;;13.20;11.80;;;25.70;99.90;;;;;;5001677;28;20215;-80
2023/08/17 08:42:57;;;;;;;14.27;12.07;;;25.70;99.90;;;;;;5000455;28;20053;-81
2023/08/17 08:45:23;;;;;;;13.60;12.23;;;25.70;99.90;;;;;;5000643;28;20035;-82
2023/08/17 08:47:51;;;;;;;13.98;12.38;;;25.80;99.90;;;;;;4987984;28;20037;-82
2023/08/17 08:50:19;;;;;;;14.57;13.07;;;25.70;99.90;;;;;;4995772;28;20125;-80
2023/08/17 08:53:02;;;;;;;13.75;12.38;;;25.70;99.90;;;;;;4981801;28;20116;-81
2023/08/17 08:55:32;;;;;;;14.05;12.57;;;25.50;99.90;;;;;;4973266;28;20124;-81
2023/08/17 08:57:58;;;;;;;12.82;11.48;;;25.50;99.90;;;;;;4994558;28;20056;-81
2023/08/17 09:00:25;;;;;;;16.58;12.23;;;25.50;99.90;;;;;;4986453;28;20022;-82
2023/08/17 09:02:52;;;;;;;12.85;11.55;;;25.70;99.90;;;;;;4991068;28;20026;-81
2023/08/17 09:05:18;;;;;;;13.25;11.07;;;25.60;99.90;;;;;;4985409;28;20027;-83
2023/08/17 09:07:47;;;;;;;13.55;12.18;;;25.60;99.90;;;;;;4986285;28;20061;-83
2023/08/17 09:10:13;;;;;;;14.07;12.27;;;25.50;99.90;;;;;;4983763;28;20332;-77
2023/08/17 09:12:39;;;;;;;14.23;12.82;;;25.60;99.90;;;;;;4985496;28;20085;-79
2023/08/17 09:15:06;;;;;;;14.15;11.90;;;25.40;99.90;;;;;;4991793;28;20026;-80
2023/08/17 09:17:34;;;;;;;15.05;13.45;;;25.40;99.90;;;;;;4986299;28;20091;-81
2023/08/17 09:20:01;;;;;;;14.23;11.85;;;25.50;99.90;;;;;;4986928;28;20033;-77
2023/08/17 09:22:38;;;;;;;16.20;12.40;;;25.60;99.90;;;;;;4941694;28;20035;-81
2023/08/17 09:25:07;;;;;;;12.07;10.93;;;25.70;99.90;;;;;;4985532;28;20069;-80
2023/08/17 09:27:35;;;;;;;12.88;11.48;;;25.60;99.90;;;;;;4982903;28;20121;-81
2023/08/17 09:30:06;;;;;;;12.23;10.90;;;25.70;99.90;;;;;;4980771;28;20042;-77
2023/08/17 09:32:33;;;;;;;13.40;9.98;;;25.80;99.90;;;;;;4982649;28;20123;-80
2023/08/17 09:35:06;;;;;;;12.48;11.27;;;25.80;99.90;;;;;;4993168;28;20088;-78
2023/08/17 09:37:33;;;;;;;13.85;11.15;;;25.80;99.90;;;;;;4982689;28;20078;-79
2023/08/17 09:39:59;;;;;;;12.73;10.00;;;25.90;99.90;;;;;;4992577;28;20061;-81
2023/08/17 09:42:27;;;;;;;12.32;10.20;;;25.90;99.90;;;;;;4994621;28;20034;-78
2023/08/17 09:44:53;;;;;;;15.55;12.10;;;26.00;99.90;;;;;;4986510;28;20035;-79
2023/08/17 09:47:21;;;;;;;9.93;9.02;;;26.00;99.90;;;;;;4984011;28;20403;-80
2023/08/17 09:49:54;;;;;;;12.70;9.80;;;26.10;99.90;;;;;;4989273;28;20031;-79
2023/08/17 09:52:22;;;;;;;9.90;8.95;;;26.20;99.90;;;;;;4991164;28;20034;-80
2023/08/17 09:54:48;;;;;;;9.65;8.70;;;26.20;99.90;;;;;;4991252;28;20030;-79
2023/08/17 09:57:14;;;;;;;9.35;8.38;;;26.20;99.90;;;;;;4964188;28;20041;-79
2023/08/17 09:59:40;;;;;;;10.70;9.63;;;26.20;99.90;;;;;;4991654;28;20018;-80
2023/08/17 10:02:19;;;;;;;12.40;9.95;;;26.20;99.90;;;;;;4992340;28;20022;-80
2023/08/17 10:04:51;;;;;;;10.93;9.82;;;26.20;99.90;;;;;;4987449;28;20030;-79
2023/08/17 10:07:20;;;;;;;11.63;10.35;;;26.10;99.90;;;;;;4980893;28;20038;-80
2023/08/17 10:09:52;;;;;;;10.77;9.75;;;26.10;99.90;;;;;;4978538;28;20050;-80
2023/08/17 10:12:19;;;;;;;11.57;9.43;;;26.20;99.90;;;;;;4996017;28;20035;-80
2023/08/17 10:14:58;;;;;;;10.98;9.68;;;26.20;99.90;;;;;;4994384;28;20064;-80
2023/08/17 10:17:33;;;;;;;10.90;9.80;;;26.30;99.90;;;;;;4997032;28;20038;-80
2023/08/17 10:19:59;;;;;;;10.30;9.30;;;26.30;99.90;;;;;;4995405;28;20018;-81
2023/08/17 10:22:31;;;;;;;9.93;8.93;;;26.40;99.90;;;;;;4971600;28;20127;-80
2023/08/17 10:25:00;;;;;;;13.73;9.30;;;26.40;99.90;;;;;;4993895;28;20030;-78
2023/08/17 10:27:26;;;;;;;17.48;9.95;;;26.50;99.90;;;;;;4990203;28;20030;-80
2023/08/17 10:29:52;;;;;;;10.27;9.27;;;26.40;99.90;;;;;;4999328;28;20618;-80
2023/08/17 10:32:21;;;;;;;12.18;8.52;;;26.30;99.90;;;;;;4993954;28;20035;-81
2023/08/17 10:34:47;;;;;;;15.25;10.00;;;26.30;99.90;;;;;;4995373;28;20034;-80
2023/08/17 10:37:15;;;;;;;10.05;9.05;;;26.40;99.90;;;;;;4995568;28;20038;-80
2023/08/17 10:39:48;;;;;;;12.75;9.82;;;26.40;99.90;;;;;;4996594;28;20026;-80
2023/08/17 10:42:14;;;;;;;9.95;8.98;;;26.50;99.90;;;;;;4975740;28;20027;-80
2023/08/17 10:44:44;;;;;;;10.35;9.15;;;26.50;99.90;;;;;;4970576;28;20129;-82
2023/08/17 10:47:29;;;;;;;13.88;11.05;;;26.40;99.90;;;;;;4989368;28;20035;-83
2023/08/17 10:50:06;;;;;;;12.85;10.23;;;26.60;99.90;;;;;;4987128;28;20042;-78
2023/08/17 10:52:35;;;;;;;10.18;9.07;;;26.70;99.90;;;;;;4982800;28;20104;-80
2023/08/17 10:55:11;;;;;;;14.02;9.63;;;26.70;99.90;;;;;;4987929;28;20036;-83
2023/08/17 10:57:41;;;;;;;9.77;8.82;;;26.70;99.90;;;;;;4989368;28;20052;-83
2023/08/17 11:00:26;;;;;;;10.20;9.20;;;26.60;99.90;;;;;;4993520;28;20030;-81
2023/08/17 11:03:00;;;;;;;10.65;9.55;;;26.60;99.90;;;;;;4997892;28;20053;-82
2023/08/17 11:06:04;;;;;;;10.38;9.48;;;26.60;99.90;;;;;;4995544;28;20058;-82
2023/08/17 11:08:42;;;;;;;10.80;9.55;;;26.60;99.90;;;;;;4978619;28;21145;-79
2023/08/17 11:11:15;;;;;;;10.75;9.65;;;26.70;99.90;;;;;;4987875;28;20492;-79
2023/08/17 11:13:45;;;;;;;10.65;9.57;;;26.80;99.90;;;;;;4989909;28;20453;-79
2023/08/17 11:16:12;;;;;;;9.90;8.90;;;27.00;99.90;;;;;;4973901;28;20035;-78
2023/08/17 11:18:38;;;;;;;13.85;9.40;;;27.10;99.90;;;;;;4995092;28;20087;-78
2023/08/17 11:21:23;;;;;;;11.18;9.18;;;27.10;99.90;;;;;;4994497;28;20061;-78
2023/08/17 11:23:49;;;;;;;9.88;8.98;;;27.20;99.90;;;;;;4971279;28;20197;-78
2023/08/17 11:26:17;;;;;;;10.60;9.27;;;27.20;99.90;;;;;;4991185;28;20038;-76
2023/08/17 11:28:44;;;;;;;13.13;9.75;;;27.30;99.90;;;;;;4975766;28;20233;-78
2023/08/17 11:31:13;;;;;;;9.82;8.82;;;27.30;99.90;;;;;;4992043;28;20035;-79
2023/08/17 11:33:39;;;;;;;10.13;9.20;;;27.40;99.90;;;;;;4994541;28;20455;-75
2023/08/17 11:36:08;;;;;;;9.82;8.82;;;27.50;99.90;;;;;;4991065;28;20113;-78
2023/08/17 11:38:42;;;;;;;10.98;10.05;;;27.50;99.90;;;;;;4990102;28;20037;-80
2023/08/17 11:41:08;;;;;;;12.35;8.80;;;27.70;99.90;;;;;;4993297;28;20039;-77
2023/08/17 11:43:35;;;;;;;9.80;8.90;;;27.60;99.90;;;;;;4989250;28;20015;-78
2023/08/17 11:46:02;;;;;;;9.63;8.73;;;27.50;99.90;;;;;;4992206;28;20031;-80
2023/08/17 11:48:28;;;;;;;9.70;8.80;;;27.50;99.90;;;;;;4989291;28;20051;-76
2023/08/17 11:50:58;;;;;;;14.02;10.18;;;27.60;99.90;;;;;;4994381;28;20082;-79
2023/08/17 11:53:24;;;;;;;9.65;8.20;;;27.70;99.90;;;;;;4982295;28;20047;-79
2023/08/17 11:55:50;;;;;;;10.45;8.82;;;27.80;99.90;;;;;;4990417;28;20042;-79
2023/08/17 11:58:16;;;;;;;11.45;9.32;;;28.00;99.90;;;;;;4986351;28;20069;-79
2023/08/17 12:00:46;;;;;;;9.23;8.43;;;28.00;99.90;;;;;;4982626;28;20247;-78
2023/08/17 12:03:16;;;;;;;11.38;9.68;;;28.10;99.90;;;;;;4989234;28;20097;-79
2023/08/17 12:05:43;;;;;;;10.27;9.15;;;28.10;99.90;;;;;;4991617;28;20460;-78
2023/08/17 12:08:09;;;;;;;10.73;9.63;;;27.90;99.90;;;;;;4992951;28;20034;-78
2023/08/17 12:10:38;;;;;;;11.48;9.35;;;27.90;99.90;;;;;;4985118;28;20039;-78
2023/08/17 12:13:04;;;;;;;9.45;8.55;;;27.90;99.90;;;;;;4988077;28;20038;-77
2023/08/17 12:15:35;;;;;;;9.60;8.70;;;28.10;99.90;;;;;;4985007;28;20037;-79
2023/08/17 12:18:03;;;;;;;9.75;8.75;;;28.10;99.90;;;;;;4974054;28;20173;-79
2023/08/17 12:20:32;;;;;;;9.85;8.75;;;28.30;99.90;;;;;;4966655;28;20044;-78
2023/08/17 12:23:01;;;;;;;9.88;8.88;;;28.30;99.90;;;;;;4986447;28;20065;-79
2023/08/17 12:25:27;;;;;;;11.52;8.77;;;28.30;99.90;;;;;;4989337;28;20038;-79
2023/08/17 12:27:53;;;;;;;10.88;9.05;;;28.60;99.90;;;;;;4991001;28;20049;-78
2023/08/17 12:30:26;;;;;;;9.52;8.63;;;28.70;99.90;;;;;;4989277;28;20045;-79
2023/08/17 12:32:52;;;;;;;10.18;8.57;;;28.70;99.90;;;;;;4988897;28;20031;-79
2023/08/17 12:35:17;;;;;;;9.45;8.50;;;28.70;99.90;;;;;;4994545;28;20153;-79
2023/08/17 12:37:43;;;;;;;8.82;8.02;;;28.50;99.70;;;;;;4986899;28;20030;-79
2023/08/17 12:40:10;;;;;;;8.57;7.70;;;28.40;99.90;;;;;;4971926;28;20034;-79
2023/08/17 12:42:35;;;;;;;9.73;8.77;;;28.50;99.90;;;;;;4989784;28;20081;-80
2023/08/17 12:45:01;;;;;;;9.27;8.35;;;28.70;99.90;;;;;;4984813;28;20109;-80